createdAt,value
2019-06-08T00:01:16.736Z,16.21
2019-06-08T00:03:43.147Z,16.16
2019-06-08T00:06:09.735Z,16.12
2019-06-08T00:08:35.601Z,16.06
2019-06-08T00:11:01.510Z,16.12
2019-06-08T00:13:27.970Z,16.10
2019-06-08T00:15:53.851Z,16.14
2019-06-08T00:18:19.787Z,16.12
2019-06-08T00:20:45.673Z,16.13
2019-06-08T00:23:11.543Z,16.14
2019-06-08T00:25:37.882Z,16.14
2019-06-08T00:28:03.739Z,16.14
2019-06-08T00:30:30.711Z,16.11
2019-06-08T00:32:57.039Z,16.04
2019-06-08T00:35:22.988Z,16.06
2019-06-08T00:37:49.464Z,16.02
2019-06-08T00:40:15.713Z,16.01
2019-06-08T00:42:42.948Z,16.03
2019-06-08T00:45:09.013Z,15.99
2019-06-08T00:47:47.066Z,16.01
2019-06-08T00:50:05.272Z,16.01
2019-06-08T00:52:31.156Z,16.03
2019-06-08T00:54:57.016Z,15.95
2019-06-08T00:57:23.849Z,15.95
2019-06-08T00:59:49.823Z,15.96
2019-06-08T01:02:15.746Z,15.98
2019-06-08T01:04:41.946Z,15.95
2019-06-08T01:07:07.837Z,15.99
2019-06-08T01:09:33.704Z,15.98
2019-06-08T01:11:59.599Z,15.94
2019-06-08T01:14:25.457Z,15.93
2019-06-08T01:16:51.456Z,15.91
2019-06-08T01:19:17.331Z,15.91
2019-06-08T01:21:43.393Z,15.90
2019-06-08T01:24:09.263Z,15.92
2019-06-08T01:26:35.153Z,15.85
2019-06-08T01:29:01.673Z,15.80
2019-06-08T01:31:28.356Z,15.75
2019-06-08T01:33:54.348Z,15.78
2019-06-08T01:36:20.687Z,15.72
2019-06-08T01:38:46.732Z,15.70
2019-06-08T01:41:12.596Z,15.67
2019-06-08T01:43:39.215Z,15.64
2019-06-08T01:46:05.675Z,15.63
2019-06-08T01:48:32.353Z,15.59
2019-06-08T01:50:58.365Z,15.60
2019-06-08T01:53:24.892Z,15.57
2019-06-08T01:55:50.756Z,15.51
2019-06-08T01:58:17.321Z,15.44
2019-06-08T02:00:43.276Z,15.35
2019-06-08T02:03:09.198Z,15.32
2019-06-08T02:05:35.074Z,15.33
2019-06-08T02:08:00.962Z,15.29
2019-06-08T02:10:26.946Z,15.34
2019-06-08T02:12:52.842Z,15.31
2019-06-08T02:15:19.212Z,15.28
2019-06-08T02:17:45.418Z,15.27
2019-06-08T02:20:13.376Z,15.16
2019-06-08T02:22:39.448Z,15.09
2019-06-08T02:25:06.320Z,15.02
2019-06-08T02:27:33.572Z,15.00
2019-06-08T02:29:59.491Z,14.97
2019-06-08T02:32:25.383Z,15.00
2019-06-08T02:34:51.247Z,15.00
2019-06-08T02:37:17.120Z,14.98
2019-06-08T02:39:43.031Z,14.93
2019-06-08T02:42:08.884Z,14.87
2019-06-08T02:44:36.290Z,14.87
2019-06-08T02:47:02.315Z,14.83
2019-06-08T02:49:29.106Z,14.81
2019-06-08T02:51:55.171Z,14.78
2019-06-08T02:54:21.553Z,14.68
2019-06-08T02:56:47.829Z,14.57
2019-06-08T02:59:14.405Z,14.51
2019-06-08T03:01:40.839Z,14.50
2019-06-08T03:04:06.824Z,14.46
2019-06-08T03:06:35.085Z,14.36
2019-06-08T03:09:04.169Z,14.30
2019-06-08T03:11:30.537Z,14.37
2019-06-08T03:13:56.512Z,14.42
2019-06-08T03:16:22.378Z,14.36
2019-06-08T03:18:48.260Z,14.37
2019-06-08T03:21:14.119Z,14.38
2019-06-08T03:23:41.513Z,14.31
2019-06-08T03:26:07.875Z,14.21
2019-06-08T03:28:35.607Z,14.21
2019-06-08T03:31:01.523Z,14.19
2019-06-08T03:33:27.675Z,14.22
2019-06-08T03:35:57.581Z,14.24
2019-06-08T03:38:21.378Z,14.23
2019-06-08T03:40:47.234Z,14.12
2019-06-08T03:43:13.097Z,14.09
2019-06-08T03:45:40.660Z,14.08
2019-06-08T03:48:06.649Z,14.14
2019-06-08T03:50:32.535Z,14.08
2019-06-08T03:52:58.394Z,14.22
2019-06-08T03:55:24.284Z,14.11
2019-06-08T03:57:50.275Z,14.14
2019-06-08T04:00:16.361Z,14.13
2019-06-08T04:02:43.734Z,14.13
2019-06-08T04:05:10.283Z,14.13
2019-06-08T04:07:37.583Z,14.12
2019-06-08T04:10:04.730Z,14.19
2019-06-08T04:12:30.590Z,14.20
2019-06-08T04:14:56.481Z,14.17
2019-06-08T04:17:22.381Z,14.19
2019-06-08T04:20:09.069Z,14.23
2019-06-08T04:22:15.991Z,14.37
2019-06-08T04:24:42.429Z,14.40
2019-06-08T04:27:08.731Z,14.35
2019-06-08T04:29:34.627Z,14.32
2019-06-08T04:32:00.483Z,14.27
2019-06-08T04:34:26.400Z,14.29
2019-06-08T04:36:52.244Z,14.18
2019-06-08T04:39:18.629Z,14.14
2019-06-08T04:41:45.411Z,14.18
2019-06-08T04:44:12.258Z,14.20
2019-06-08T04:46:38.302Z,14.20
2019-06-08T04:49:04.250Z,14.23
2019-06-08T04:51:30.105Z,14.20
2019-06-08T04:53:56.029Z,14.21
2019-06-08T04:56:21.921Z,14.20
2019-06-08T04:58:48.986Z,14.35
2019-06-08T05:01:15.582Z,14.38
2019-06-08T05:03:43.303Z,14.29
2019-06-08T05:06:09.250Z,14.25
2019-06-08T05:08:35.134Z,14.19
2019-06-08T05:11:01.029Z,14.25
2019-06-08T05:13:26.893Z,14.32
2019-06-08T05:15:52.773Z,14.37
2019-06-08T05:18:18.648Z,14.51
2019-06-08T05:20:47.237Z,14.79
2019-06-08T05:23:12.290Z,15.00
2019-06-08T05:25:39.096Z,15.13
2019-06-08T05:28:05.033Z,15.17
2019-06-08T05:30:30.916Z,15.23
2019-06-08T05:32:56.778Z,15.09
2019-06-08T05:35:22.696Z,15.04
2019-06-08T05:37:49.718Z,15.06
2019-06-08T05:40:15.969Z,15.05
2019-06-08T05:42:42.773Z,15.08
2019-06-08T05:45:09.782Z,14.98
2019-06-08T05:47:35.760Z,14.90
2019-06-08T05:50:03.820Z,14.84
2019-06-08T05:52:29.706Z,14.86
2019-06-08T05:54:55.574Z,15.11
2019-06-08T05:57:21.461Z,15.24
2019-06-08T05:59:48.158Z,15.45
2019-06-08T06:02:14.142Z,15.61
2019-06-08T06:04:40.872Z,15.73
2019-06-08T06:07:06.890Z,15.68
2019-06-08T06:09:32.964Z,15.71
2019-06-08T06:11:58.844Z,15.98
2019-06-08T06:14:24.701Z,16.09
2019-06-08T06:16:51.341Z,16.21
2019-06-08T06:19:17.255Z,16.27
2019-06-08T06:21:43.150Z,16.12
2019-06-08T06:24:09.003Z,16.07
2019-06-08T06:26:34.892Z,16.16
2019-06-08T06:29:00.760Z,16.24
2019-06-08T06:31:26.736Z,16.27
2019-06-08T06:33:52.599Z,16.27
2019-06-08T06:36:18.473Z,16.28
2019-06-08T06:38:45.829Z,16.19
2019-06-08T06:41:11.827Z,16.10
2019-06-08T06:43:37.714Z,16.11
2019-06-08T06:46:03.571Z,16.17
2019-06-08T06:48:29.456Z,16.19
2019-06-08T06:50:55.320Z,16.27
2019-06-08T06:53:21.196Z,16.11
2019-06-08T06:55:47.057Z,15.99
2019-06-08T06:58:12.946Z,16.12
2019-06-08T07:00:38.812Z,16.27
2019-06-08T07:03:04.754Z,16.28
2019-06-08T07:05:30.602Z,16.24
2019-06-08T07:07:56.585Z,16.13
2019-06-08T07:10:22.445Z,16.25
2019-06-08T07:12:48.666Z,16.46
2019-06-08T07:15:18.389Z,16.25
2019-06-08T07:17:44.271Z,16.45
2019-06-08T07:20:10.229Z,16.28
2019-06-08T07:22:36.118Z,16.56
2019-06-08T07:25:02.879Z,16.60
2019-06-08T07:27:28.776Z,16.77
2019-06-08T07:29:54.882Z,17.06
2019-06-08T07:32:20.806Z,17.17
2019-06-08T07:34:47.815Z,17.25
2019-06-08T07:37:14.470Z,17.24
2019-06-08T07:39:40.363Z,17.21
2019-06-08T07:42:06.228Z,17.08
2019-06-08T07:44:32.109Z,17.31
2019-06-08T07:46:57.970Z,17.43
2019-06-08T07:49:23.857Z,17.55
2019-06-08T07:52:06.001Z,17.53
2019-06-08T07:54:17.513Z,17.88
2019-06-08T07:56:43.375Z,18.16
2019-06-08T07:59:09.263Z,18.36
2019-06-08T08:01:36.503Z,18.61
2019-06-08T08:04:02.645Z,18.80
2019-06-08T08:06:30.581Z,19.04
2019-06-08T08:08:56.861Z,19.56
2019-06-08T08:11:23.537Z,19.90
2019-06-08T08:13:51.149Z,19.66
2019-06-08T08:16:17.200Z,19.73
2019-06-08T08:18:43.083Z,19.65
2019-06-08T08:21:21.387Z,19.45
2019-06-08T08:23:38.242Z,18.69
2019-06-08T08:26:04.201Z,17.86
2019-06-08T08:28:30.110Z,17.40
2019-06-08T08:30:58.593Z,17.15
2019-06-08T08:33:23.741Z,16.87
2019-06-08T08:35:51.116Z,16.91
2019-06-08T08:38:17.786Z,16.82
2019-06-08T08:40:43.683Z,16.76
2019-06-08T08:43:09.729Z,16.76
2019-06-08T08:45:37.346Z,16.94
2019-06-08T08:48:21.200Z,16.92
2019-06-08T08:50:31.082Z,16.80
2019-06-08T08:53:00.308Z,16.79
2019-06-08T08:55:24.862Z,16.63
2019-06-08T08:57:52.152Z,16.60
2019-06-08T09:00:18.911Z,16.70
2019-06-08T09:02:44.798Z,16.63
2019-06-08T09:05:11.021Z,16.39
2019-06-08T09:07:38.564Z,16.47
2019-06-08T09:10:05.234Z,16.38
2019-06-08T09:12:31.596Z,16.49
2019-06-08T09:15:00.218Z,16.41
2019-06-08T09:17:27.876Z,16.48
2019-06-08T09:19:54.073Z,16.46
2019-06-08T09:22:20.680Z,16.46
2019-06-08T09:24:48.563Z,16.33
2019-06-08T09:27:14.558Z,16.26
2019-06-08T09:29:40.903Z,16.33
2019-06-08T09:32:08.172Z,16.36
2019-06-08T09:34:35.321Z,16.54
2019-06-08T09:37:02.954Z,16.54
2019-06-08T09:39:29.229Z,16.50
2019-06-08T09:41:58.198Z,16.51
2019-06-08T09:44:23.123Z,16.54
2019-06-08T09:46:48.998Z,16.57
2019-06-08T09:49:15.565Z,16.49
2019-06-08T09:51:41.452Z,16.51
2019-06-08T09:54:11.741Z,16.29
2019-06-08T09:56:37.808Z,16.25
2019-06-08T09:59:06.098Z,16.51
2019-06-08T10:01:31.253Z,16.55
2019-06-08T10:04:00.824Z,16.57
2019-06-08T10:06:24.990Z,16.61
2019-06-08T10:08:50.856Z,16.51
2019-06-08T10:11:16.779Z,16.50
2019-06-08T10:13:43.500Z,16.55
2019-06-08T10:16:10.449Z,16.61
2019-06-08T10:18:38.591Z,16.76
2019-06-08T10:21:06.142Z,16.88
2019-06-08T10:23:34.715Z,16.84
2019-06-08T10:26:01.372Z,16.78
2019-06-08T10:28:28.997Z,16.66
2019-06-08T10:30:56.048Z,16.77
2019-06-08T10:33:23.050Z,16.61
2019-06-08T10:35:48.949Z,16.61
2019-06-08T10:38:14.847Z,16.62
2019-06-08T10:41:07.118Z,16.64
2019-06-08T10:43:28.883Z,16.62
2019-06-08T10:45:54.721Z,16.51
2019-06-08T10:48:20.611Z,16.77
2019-06-08T10:50:47.497Z,16.97
2019-06-08T10:53:16.312Z,17.52
2019-06-08T10:55:41.326Z,17.40
2019-06-08T10:58:09.563Z,17.29
2019-06-08T11:00:34.951Z,17.08
2019-06-08T11:03:03.244Z,16.77
2019-06-08T11:05:28.635Z,16.77
2019-06-08T11:07:54.526Z,16.53
2019-06-08T11:10:20.401Z,15.94
2019-06-08T11:12:48.372Z,16.28
2019-06-08T11:15:14.130Z,16.26
2019-06-08T11:17:40.014Z,16.25
2019-06-08T11:20:07.408Z,16.32
2019-06-08T11:22:33.786Z,16.35
2019-06-08T11:25:00.750Z,16.47
2019-06-08T11:27:28.497Z,16.44
2019-06-08T11:29:54.511Z,16.55
2019-06-08T11:32:20.385Z,16.49
2019-06-08T11:34:48.669Z,16.36
2019-06-08T11:37:18.521Z,16.50
2019-06-08T11:39:41.803Z,16.59
2019-06-08T11:42:10.661Z,16.39
2019-06-08T11:44:35.490Z,16.62
2019-06-08T11:47:02.538Z,16.71
2019-06-08T11:49:28.478Z,16.78
2019-06-08T11:51:54.376Z,16.86
2019-06-08T11:54:33.231Z,16.26
2019-06-08T11:56:49.899Z,15.86
2019-06-08T11:59:15.984Z,15.65
2019-06-08T12:01:41.883Z,15.88
2019-06-08T12:04:08.178Z,16.00
2019-06-08T12:06:34.130Z,16.12
2019-06-08T12:09:00.311Z,16.08
2019-06-08T12:11:28.026Z,16.22
2019-06-08T12:13:53.988Z,16.54
2019-06-08T12:16:22.286Z,16.61
2019-06-08T12:18:49.290Z,17.04
2019-06-08T12:21:15.399Z,17.02
2019-06-08T12:23:41.295Z,17.10
2019-06-08T12:26:08.177Z,17.08
2019-06-08T12:28:34.148Z,16.91
2019-06-08T12:31:01.097Z,16.68
2019-06-08T12:33:30.347Z,16.82
2019-06-08T12:35:54.865Z,16.86
2019-06-08T12:38:20.752Z,16.94
2019-06-08T12:40:48.560Z,17.17
2019-06-08T12:43:15.756Z,17.10
2019-06-08T12:45:41.901Z,17.10
2019-06-08T12:48:10.326Z,16.92
2019-06-08T12:50:35.665Z,16.83
2019-06-08T12:53:02.248Z,16.31
2019-06-08T12:55:28.196Z,16.19
2019-06-08T12:57:55.000Z,16.22
2019-06-08T13:00:21.729Z,16.05
2019-06-08T13:02:51.017Z,16.10
2019-06-08T13:05:21.118Z,16.15
2019-06-08T13:07:47.394Z,16.26
2019-06-08T13:10:13.257Z,16.24
2019-06-08T13:12:40.967Z,16.43
2019-06-08T13:15:08.442Z,16.60
2019-06-08T13:17:34.933Z,16.53
2019-06-08T13:20:00.818Z,16.55
2019-06-08T13:22:29.037Z,16.47
2019-06-08T13:24:54.543Z,16.45
2019-06-08T13:27:22.789Z,16.54
2019-06-08T13:29:48.928Z,16.61
2019-06-08T13:32:16.512Z,16.45
2019-06-08T13:34:44.315Z,16.54
2019-06-08T13:37:10.582Z,16.46
2019-06-08T13:39:39.887Z,16.40
2019-06-08T13:42:07.767Z,16.37
2019-06-08T13:44:37.686Z,16.44
2019-06-08T13:47:03.481Z,16.36
2019-06-08T13:49:30.869Z,16.36
2019-06-08T13:51:58.406Z,16.38
2019-06-08T13:54:24.440Z,16.43
2019-06-08T13:56:50.687Z,16.63
2019-06-08T13:59:23.092Z,16.62
2019-06-08T14:01:47.788Z,16.81
2019-06-08T14:04:15.020Z,16.94
2019-06-08T14:06:44.929Z,16.82
2019-06-08T14:09:10.797Z,16.80
2019-06-08T14:11:36.658Z,16.81
2019-06-08T14:14:02.651Z,16.81
2019-06-08T14:16:29.727Z,16.96
2019-06-08T14:18:55.803Z,17.18
2019-06-08T14:21:29.432Z,17.25
2019-06-08T14:23:49.529Z,17.42
2019-06-08T14:26:15.385Z,17.85
2019-06-08T14:28:41.292Z,18.26
2019-06-08T14:31:08.120Z,18.35
2019-06-08T14:33:34.931Z,18.15
2019-06-08T14:36:01.602Z,17.93
2019-06-08T14:38:35.184Z,17.88
2019-06-08T14:40:55.292Z,17.86
2019-06-08T14:43:21.306Z,17.62
2019-06-08T14:45:47.572Z,17.51
2019-06-08T14:48:13.703Z,17.63
2019-06-08T14:50:41.013Z,18.05
2019-06-08T14:53:08.632Z,18.55
2019-06-08T14:55:34.694Z,18.69
2019-06-08T14:58:00.519Z,18.79
2019-06-08T15:00:27.768Z,18.63
2019-06-08T15:02:53.789Z,18.44
2019-06-08T15:05:19.992Z,18.37
2019-06-08T15:07:47.798Z,18.03
2019-06-08T15:10:14.051Z,17.91
2019-06-08T15:12:39.920Z,17.86
2019-06-08T15:15:08.310Z,17.71
2019-06-08T15:17:33.775Z,17.82
2019-06-08T15:19:59.666Z,18.18
2019-06-08T15:22:26.812Z,18.52
2019-06-08T15:24:53.323Z,18.67
2019-06-08T15:27:22.638Z,18.59
2019-06-08T15:29:47.808Z,18.48
2019-06-08T15:32:13.728Z,18.51
2019-06-08T15:34:39.614Z,18.42
2019-06-08T15:37:05.476Z,18.47
2019-06-08T15:39:33.879Z,18.37
2019-06-08T15:42:00.212Z,18.34
2019-06-08T15:44:28.642Z,18.20
2019-06-08T15:46:54.001Z,18.22
2019-06-08T15:49:19.959Z,18.24
2019-06-08T15:51:47.982Z,18.36
2019-06-08T15:54:13.605Z,18.32
2019-06-08T15:56:48.566Z,18.33
2019-06-08T15:59:09.239Z,18.22
2019-06-08T16:01:35.016Z,18.15
2019-06-08T16:04:03.956Z,18.10
2019-06-08T16:06:29.673Z,18.08
2019-06-08T16:08:55.574Z,17.90
2019-06-08T16:11:21.432Z,17.78
2019-06-08T16:13:47.320Z,17.76
2019-06-08T16:16:13.183Z,17.77
2019-06-08T16:18:39.068Z,17.95
2019-06-08T16:21:04.928Z,17.93
2019-06-08T16:23:31.808Z,17.84
2019-06-08T16:25:57.776Z,17.70
2019-06-08T16:28:23.664Z,17.68
2019-06-08T16:30:49.524Z,17.68
2019-06-08T16:33:15.411Z,17.52
2019-06-08T16:35:41.279Z,17.40
2019-06-08T16:38:07.175Z,17.42
2019-06-08T16:40:34.273Z,17.52
2019-06-08T16:43:00.253Z,17.58
2019-06-08T16:45:26.986Z,17.64
2019-06-08T16:47:52.924Z,17.69
2019-06-08T16:50:24.487Z,17.71
2019-06-08T16:52:46.653Z,17.97
2019-06-08T16:55:12.550Z,17.97
2019-06-08T16:57:41.098Z,17.94
2019-06-08T17:00:30.073Z,17.70
2019-06-08T17:02:35.123Z,17.62
2019-06-08T17:05:01.682Z,17.57
2019-06-08T17:07:27.740Z,17.39
2019-06-08T17:09:53.637Z,17.47
2019-06-08T17:12:19.500Z,17.62
2019-06-08T17:14:45.392Z,17.55
2019-06-08T17:17:11.258Z,17.58
2019-06-08T17:19:38.293Z,17.61
2019-06-08T17:22:04.660Z,17.28
2019-06-08T17:24:30.548Z,17.34
2019-06-08T17:26:56.768Z,17.36
2019-06-08T17:29:22.657Z,17.36
2019-06-08T17:31:48.619Z,17.30
2019-06-08T17:34:14.513Z,17.29
2019-06-08T17:36:40.717Z,17.34
2019-06-08T17:39:06.679Z,17.31
2019-06-08T17:41:32.549Z,17.20
2019-06-08T17:43:58.430Z,17.06
2019-06-08T17:46:24.290Z,17.10
2019-06-08T17:48:50.154Z,17.22
2019-06-08T17:51:16.039Z,17.29
2019-06-08T17:53:43.304Z,17.32
2019-06-08T17:56:09.494Z,17.51
2019-06-08T17:58:35.361Z,17.54
2019-06-08T18:01:01.244Z,17.59
2019-06-08T18:03:27.936Z,17.46
2019-06-08T18:05:53.921Z,17.36
2019-06-08T18:08:19.786Z,17.19
2019-06-08T18:10:45.683Z,17.05
2019-06-08T18:13:11.544Z,17.03
2019-06-08T18:15:39.972Z,16.97
2019-06-08T18:18:05.189Z,16.96
2019-06-08T18:20:31.085Z,16.83
2019-06-08T18:22:57.855Z,16.76
2019-06-08T18:25:23.948Z,16.70
2019-06-08T18:28:05.559Z,16.64
2019-06-08T18:30:19.163Z,16.59
2019-06-08T18:32:46.346Z,16.40
2019-06-08T18:35:12.854Z,16.32
2019-06-08T18:37:40.899Z,16.33
2019-06-08T18:40:07.262Z,16.26
2019-06-08T18:42:33.162Z,16.24
2019-06-08T18:44:59.047Z,16.11
2019-06-08T18:47:27.266Z,16.07
2019-06-08T18:49:52.700Z,16.01
2019-06-08T18:52:18.577Z,16.04
2019-06-08T18:54:45.763Z,15.99
2019-06-08T18:57:12.362Z,16.02
2019-06-08T18:59:43.151Z,15.74
2019-06-08T19:02:07.997Z,15.48
2019-06-08T19:04:33.974Z,15.36
2019-06-08T19:07:01.337Z,15.21
2019-06-08T19:09:27.555Z,15.09
2019-06-08T19:11:53.440Z,15.09
2019-06-08T19:14:20.833Z,14.97
2019-06-08T19:16:51.434Z,14.87
2019-06-08T19:19:14.649Z,14.88
2019-06-08T19:21:40.802Z,14.87
2019-06-08T19:24:09.624Z,14.92
2019-06-08T19:26:34.488Z,14.87
2019-06-08T19:29:00.572Z,14.92
2019-06-08T19:31:27.643Z,14.86
2019-06-08T19:33:53.685Z,14.83
2019-06-08T19:36:19.539Z,14.84
2019-06-08T19:38:48.052Z,14.83
2019-06-08T19:41:13.158Z,14.74
2019-06-08T19:43:41.508Z,14.81
2019-06-08T19:46:07.273Z,14.76
2019-06-08T19:48:33.209Z,14.69
2019-06-08T19:50:59.058Z,14.68
2019-06-08T19:53:24.951Z,14.71
2019-06-08T19:55:53.959Z,14.65
2019-06-08T19:58:18.609Z,14.51
2019-06-08T20:00:48.094Z,14.49
2019-06-08T20:03:12.437Z,14.46
2019-06-08T20:05:38.292Z,14.49
2019-06-08T20:08:04.176Z,14.50
2019-06-08T20:10:30.039Z,14.50
2019-06-08T20:12:57.619Z,14.44
2019-06-08T20:15:23.805Z,14.47
2019-06-08T20:17:51.442Z,14.43
2019-06-08T20:20:18.364Z,14.43
2019-06-08T20:22:44.354Z,14.41
2019-06-08T20:25:10.796Z,14.43
2019-06-08T20:27:37.279Z,14.38
2019-06-08T20:30:08.703Z,14.37
2019-06-08T20:32:32.058Z,14.35
2019-06-08T20:34:57.936Z,14.27
2019-06-08T20:37:23.808Z,14.27
2019-06-08T20:40:02.791Z,14.29
2019-06-08T20:42:17.505Z,14.29
2019-06-08T20:44:43.993Z,14.24
2019-06-08T20:47:09.859Z,14.23
2019-06-08T20:49:37.263Z,14.17
2019-06-08T20:52:03.310Z,14.14
2019-06-08T20:54:29.199Z,14.07
2019-06-08T20:56:55.066Z,14.04
2019-06-08T20:59:30.085Z,13.99
2019-06-08T21:01:50.490Z,13.95
2019-06-08T21:04:18.186Z,13.87
2019-06-08T21:06:44.100Z,13.84
2019-06-08T21:09:09.989Z,13.85
2019-06-08T21:11:37.945Z,13.86
2019-06-08T21:14:04.144Z,13.75
2019-06-08T21:16:30.001Z,13.74
2019-06-08T21:18:57.912Z,13.76
2019-06-08T21:21:23.648Z,13.69
2019-06-08T21:23:53.980Z,13.72
2019-06-08T21:26:18.406Z,13.69
2019-06-08T21:28:47.148Z,13.68
2019-06-08T21:31:12.176Z,13.61
2019-06-08T21:33:38.098Z,13.65
2019-06-08T21:36:05.193Z,13.67
2019-06-08T21:38:31.793Z,13.65
2019-06-08T21:41:02.076Z,13.70
2019-06-08T21:43:27.718Z,13.68
2019-06-08T21:45:54.637Z,13.70
2019-06-08T21:48:20.996Z,13.76
2019-06-08T21:50:48.963Z,13.68
2019-06-08T21:53:14.655Z,13.70
2019-06-08T21:55:40.545Z,13.76
2019-06-08T21:58:08.098Z,13.71
2019-06-08T22:00:42.185Z,13.70
2019-06-08T22:03:02.743Z,13.68
2019-06-08T22:05:28.655Z,13.67
2019-06-08T22:07:54.518Z,13.60
2019-06-08T22:10:20.412Z,13.58
2019-06-08T22:12:48.388Z,13.63
2019-06-08T22:15:14.268Z,13.54
2019-06-08T22:17:40.133Z,13.53
2019-06-08T22:20:08.039Z,13.53
2019-06-08T22:22:34.178Z,13.56
2019-06-08T22:25:01.149Z,13.51
2019-06-08T22:27:27.342Z,13.50
2019-06-08T22:29:53.618Z,13.53
2019-06-08T22:32:19.577Z,13.48
2019-06-08T22:34:47.566Z,13.47
2019-06-08T22:37:13.329Z,13.53
2019-06-08T22:39:39.190Z,13.55
2019-06-08T22:42:05.080Z,13.50
2019-06-08T22:44:30.937Z,13.52
2019-06-08T22:46:59.844Z,13.52
2019-06-08T22:49:24.593Z,13.49
2019-06-08T22:51:50.480Z,13.47
2019-06-08T22:54:17.062Z,13.40
2019-06-08T22:56:43.032Z,13.47
2019-06-08T22:59:09.194Z,13.40
2019-06-08T23:01:35.287Z,13.35
2019-06-08T23:04:03.875Z,13.37
2019-06-08T23:06:28.983Z,13.31
2019-06-08T23:08:57.022Z,13.34
2019-06-08T23:11:22.624Z,13.34
2019-06-08T23:13:48.482Z,13.31
2019-06-08T23:16:14.345Z,13.30
2019-06-08T23:18:40.232Z,13.24
2019-06-08T23:21:08.729Z,13.23
2019-06-08T23:23:33.870Z,13.25
2019-06-08T23:26:02.108Z,13.25
2019-06-08T23:28:28.282Z,13.25
2019-06-08T23:31:07.953Z,13.17
2019-06-08T23:33:21.985Z,13.09
2019-06-08T23:36:21.717Z,13.14
2019-06-08T23:38:17.275Z,13.13
2019-06-08T23:40:43.310Z,13.21
2019-06-08T23:43:09.210Z,13.17
2019-06-08T23:45:35.080Z,13.22
2019-06-08T23:48:02.574Z,13.18
2019-06-08T23:50:28.669Z,13.12
2019-06-08T23:52:54.556Z,13.13
2019-06-08T23:55:20.412Z,13.12
2019-06-08T23:57:46.304Z,13.13
